createdAt,value
2022-08-20T00:01:21.586Z,20.66
2022-08-20T00:03:50.316Z,20.66
2022-08-20T00:06:23.775Z,20.73
2022-08-20T00:08:52.441Z,20.75
2022-08-20T00:11:25.730Z,20.81
2022-08-20T00:13:58.390Z,20.68
2022-08-20T00:16:32.884Z,20.77
2022-08-20T00:19:01.645Z,20.73
2022-08-20T00:21:31.445Z,20.63
2022-08-20T00:24:00.186Z,20.59
2022-08-20T00:26:29.674Z,20.71
2022-08-20T00:28:57.899Z,20.64
2022-08-20T00:31:26.691Z,20.55
2022-08-20T00:33:55.078Z,20.57
2022-08-20T00:36:32.169Z,20.65
2022-08-20T00:39:02.059Z,20.68
2022-08-20T00:41:31.993Z,20.68
2022-08-20T00:44:10.539Z,20.79
2022-08-20T00:46:39.702Z,20.50
2022-08-20T00:49:10.305Z,20.65
2022-08-20T00:51:43.851Z,20.65
2022-08-20T00:54:16.466Z,20.62
2022-08-20T00:56:50.429Z,20.67
2022-08-20T00:59:22.357Z,20.62
2022-08-20T01:01:55.793Z,20.67
2022-08-20T01:04:26.396Z,20.63
2022-08-20T01:06:55.263Z,20.64
2022-08-20T01:09:49.426Z,20.67
2022-08-20T01:12:14.630Z,20.63
2022-08-20T01:14:45.856Z,20.61
2022-08-20T01:17:18.154Z,20.62
2022-08-20T01:19:52.587Z,20.62
2022-08-20T01:22:41.374Z,20.59
2022-08-20T01:25:18.087Z,20.63
2022-08-20T01:27:55.221Z,20.77
2022-08-20T01:30:25.803Z,20.64
2022-08-20T01:32:54.001Z,20.39
2022-08-20T01:35:23.499Z,20.44
2022-08-20T01:37:52.484Z,20.41
2022-08-20T01:40:41.303Z,20.42
2022-08-20T01:43:11.480Z,20.51
2022-08-20T01:45:41.309Z,20.63
2022-08-20T01:48:09.775Z,20.56
2022-08-20T01:50:42.946Z,20.47
2022-08-20T01:53:19.015Z,20.48
2022-08-20T01:55:47.288Z,20.47
2022-08-20T01:58:17.106Z,20.42
2022-08-20T02:00:45.291Z,20.42
2022-08-20T02:03:13.502Z,20.32
2022-08-20T02:05:42.067Z,20.36
2022-08-20T02:08:10.308Z,20.32
2022-08-20T02:10:38.465Z,20.30
2022-08-20T02:13:09.024Z,20.17
2022-08-20T02:15:39.795Z,20.14
2022-08-20T02:18:13.982Z,20.10
2022-08-20T02:20:43.753Z,20.17
2022-08-20T02:23:13.247Z,20.07
2022-08-20T02:25:44.652Z,20.21
2022-08-20T02:28:15.503Z,20.26
2022-08-20T02:30:48.022Z,20.25
2022-08-20T02:33:19.237Z,20.20
2022-08-20T02:35:50.177Z,20.25
2022-08-20T02:38:18.492Z,20.24
2022-08-20T02:40:49.044Z,20.18
2022-08-20T02:43:18.829Z,20.16
2022-08-20T02:45:48.759Z,20.10
2022-08-20T02:48:21.006Z,20.22
2022-08-20T02:50:55.084Z,20.29
2022-08-20T02:53:24.429Z,20.36
2022-08-20T02:55:52.948Z,20.32
2022-08-20T02:58:21.894Z,20.32
2022-08-20T03:00:51.754Z,20.32
2022-08-20T03:03:22.547Z,20.39
2022-08-20T03:05:52.974Z,20.31
2022-08-20T03:08:22.287Z,20.30
2022-08-20T03:10:51.418Z,20.43
2022-08-20T03:13:21.199Z,20.38
2022-08-20T03:15:58.418Z,20.34
2022-08-20T03:18:30.161Z,20.36
2022-08-20T03:20:58.442Z,20.36
2022-08-20T03:23:26.899Z,20.39
2022-08-20T03:25:55.681Z,20.29
2022-08-20T03:28:24.010Z,20.17
2022-08-20T03:30:54.738Z,20.08
2022-08-20T03:33:24.124Z,20.00
2022-08-20T03:35:53.146Z,19.86
2022-08-20T03:38:32.270Z,19.84
2022-08-20T03:41:02.409Z,19.79
2022-08-20T03:43:31.542Z,19.60
2022-08-20T03:46:01.125Z,19.53
2022-08-20T03:48:29.474Z,19.50
2022-08-20T03:51:00.746Z,19.55
2022-08-20T03:53:31.603Z,19.46
2022-08-20T03:56:03.265Z,19.40
2022-08-20T03:58:36.364Z,19.33
2022-08-20T04:01:32.105Z,19.37
2022-08-20T04:03:58.873Z,19.37
2022-08-20T04:06:27.769Z,19.30
2022-08-20T04:08:56.378Z,19.32
2022-08-20T04:11:24.801Z,19.11
2022-08-20T04:13:53.409Z,19.02
2022-08-20T04:16:23.951Z,18.96
2022-08-20T04:18:58.587Z,19.04
2022-08-20T04:21:32.862Z,19.12
2022-08-20T04:24:03.235Z,19.08
2022-08-20T04:26:31.992Z,18.96
2022-08-20T04:29:00.265Z,19.12
2022-08-20T04:31:33.906Z,19.06
2022-08-20T04:34:03.011Z,19.09
2022-08-20T04:36:31.636Z,19.16
2022-08-20T04:38:59.933Z,19.19
2022-08-20T04:41:28.959Z,19.18
2022-08-20T04:43:58.088Z,19.17
2022-08-20T04:46:29.082Z,19.05
2022-08-20T04:49:00.731Z,19.08
2022-08-20T04:51:29.075Z,19.06
2022-08-20T04:54:00.154Z,19.14
2022-08-20T04:56:31.977Z,19.24
2022-08-20T04:59:02.352Z,19.11
2022-08-20T05:01:30.615Z,19.21
2022-08-20T05:04:00.638Z,19.39
2022-08-20T05:06:31.181Z,19.28
2022-08-20T05:09:01.319Z,19.17
2022-08-20T05:11:35.750Z,19.31
2022-08-20T05:14:06.854Z,19.25
2022-08-20T05:16:40.417Z,19.30
2022-08-20T05:19:12.526Z,19.33
2022-08-20T05:21:41.595Z,19.31
2022-08-20T05:24:11.357Z,19.29
2022-08-20T05:26:39.726Z,19.39
2022-08-20T05:29:08.166Z,19.44
2022-08-20T05:31:37.527Z,19.39
2022-08-20T05:34:11.066Z,19.37
2022-08-20T05:36:43.754Z,19.26
2022-08-20T05:39:13.324Z,19.16
2022-08-20T05:41:42.161Z,19.26
2022-08-20T05:44:13.575Z,19.21
2022-08-20T05:46:43.920Z,19.21
2022-08-20T05:49:14.497Z,19.28
2022-08-20T05:51:44.350Z,19.27
2022-08-20T05:54:13.946Z,19.13
2022-08-20T05:56:42.702Z,19.27
2022-08-20T05:59:12.472Z,19.35
2022-08-20T06:01:41.970Z,19.56
2022-08-20T06:04:25.216Z,19.64
2022-08-20T06:06:57.843Z,19.56
2022-08-20T06:09:30.906Z,19.37
2022-08-20T06:12:03.072Z,19.44
2022-08-20T06:14:31.981Z,19.51
2022-08-20T06:17:04.885Z,19.50
2022-08-20T06:19:33.974Z,19.62
2022-08-20T06:22:18.398Z,19.72
2022-08-20T06:24:53.321Z,19.51
2022-08-20T06:27:22.158Z,19.69
2022-08-20T06:29:50.442Z,19.86
2022-08-20T06:32:19.851Z,19.68
2022-08-20T06:34:57.081Z,19.68
2022-08-20T06:37:31.054Z,19.85
2022-08-20T06:40:02.524Z,19.88
2022-08-20T06:42:30.741Z,19.68
2022-08-20T06:45:00.526Z,19.85
2022-08-20T06:47:29.153Z,19.91
2022-08-20T06:49:57.331Z,19.84
2022-08-20T06:52:35.004Z,19.74
2022-08-20T06:55:16.582Z,19.86
2022-08-20T06:57:44.819Z,19.90
2022-08-20T07:00:17.797Z,19.98
2022-08-20T07:02:48.118Z,20.06
2022-08-20T07:05:16.905Z,20.17
2022-08-20T07:07:49.410Z,20.13
2022-08-20T07:10:19.555Z,20.07
2022-08-20T07:12:50.552Z,20.11
2022-08-20T07:15:21.178Z,20.19
2022-08-20T07:17:51.338Z,20.06
2022-08-20T07:20:20.025Z,20.08
2022-08-20T07:22:50.155Z,19.79
2022-08-20T07:25:21.278Z,19.93
2022-08-20T07:27:52.650Z,20.04
2022-08-20T07:30:56.618Z,19.98
2022-08-20T07:33:28.134Z,20.23
2022-08-20T07:35:57.002Z,20.10
2022-08-20T07:38:28.096Z,20.10
2022-08-20T07:40:59.218Z,20.29
2022-08-20T07:43:28.337Z,20.11
2022-08-20T07:46:00.663Z,19.95
2022-08-20T07:48:32.199Z,19.84
2022-08-20T07:51:03.451Z,20.02
2022-08-20T07:53:35.939Z,20.11
2022-08-20T07:56:07.233Z,20.20
2022-08-20T07:58:38.266Z,20.08
2022-08-20T08:01:07.705Z,20.22
2022-08-20T08:03:49.140Z,20.06
2022-08-20T08:06:30.554Z,20.28
2022-08-20T08:09:05.014Z,20.26
2022-08-20T08:11:35.756Z,20.16
2022-08-20T08:14:06.286Z,20.35
2022-08-20T08:16:35.223Z,20.45
2022-08-20T08:19:07.539Z,20.49
2022-08-20T08:21:35.957Z,20.46
2022-08-20T08:24:05.897Z,20.65
2022-08-20T08:26:34.147Z,20.71
2022-08-20T08:29:02.581Z,20.65
2022-08-20T08:31:30.840Z,20.68
2022-08-20T08:33:59.031Z,20.97
2022-08-20T08:36:27.409Z,21.10
2022-08-20T08:38:56.568Z,21.06
2022-08-20T08:41:31.878Z,21.13
2022-08-20T08:44:08.211Z,21.28
2022-08-20T08:46:41.652Z,21.08
2022-08-20T08:49:13.206Z,20.99
2022-08-20T08:51:44.008Z,21.01
2022-08-20T08:54:17.214Z,21.04
2022-08-20T08:56:49.821Z,21.16
2022-08-20T08:59:20.567Z,20.93
2022-08-20T09:01:55.132Z,21.27
2022-08-20T09:04:31.433Z,21.09
2022-08-20T09:07:02.633Z,20.98
2022-08-20T09:09:33.750Z,20.89
2022-08-20T09:12:08.627Z,21.09
2022-08-20T09:14:37.975Z,21.16
2022-08-20T09:17:07.404Z,21.09
2022-08-20T09:19:35.630Z,20.85
2022-08-20T09:22:09.534Z,20.86
2022-08-20T09:24:38.867Z,20.69
2022-08-20T09:27:08.415Z,20.66
2022-08-20T09:29:36.679Z,20.87
2022-08-20T09:32:06.767Z,20.84
2022-08-20T09:34:37.246Z,20.93
2022-08-20T09:37:06.065Z,20.62
2022-08-20T09:39:34.319Z,20.65
2022-08-20T09:42:13.104Z,20.62
2022-08-20T09:44:42.221Z,20.52
2022-08-20T09:47:10.755Z,20.43
2022-08-20T09:49:39.159Z,20.35
2022-08-20T09:52:10.039Z,20.31
2022-08-20T09:54:46.423Z,20.38
2022-08-20T09:57:17.057Z,20.18
2022-08-20T09:59:49.107Z,20.11
2022-08-20T10:02:17.297Z,20.14
2022-08-20T10:04:45.621Z,20.10
2022-08-20T10:07:16.034Z,20.30
2022-08-20T10:09:44.632Z,20.40
2022-08-20T10:12:13.330Z,20.39
2022-08-20T10:14:43.029Z,20.32
2022-08-20T10:17:11.299Z,20.46
2022-08-20T10:19:39.742Z,20.51
2022-08-20T10:22:08.121Z,20.51
2022-08-20T10:24:36.365Z,20.41
2022-08-20T10:27:04.920Z,20.52
2022-08-20T10:29:33.650Z,20.46
2022-08-20T10:32:12.348Z,20.59
2022-08-20T10:34:41.199Z,20.59
2022-08-20T10:37:10.180Z,20.51
2022-08-20T10:39:38.560Z,20.47
2022-08-20T10:42:07.079Z,20.79
2022-08-20T10:44:35.311Z,20.87
2022-08-20T10:47:19.937Z,20.96
2022-08-20T10:49:48.459Z,21.15
2022-08-20T10:52:16.700Z,21.19
2022-08-20T10:54:45.181Z,21.25
2022-08-20T10:57:15.596Z,21.24
2022-08-20T10:59:46.266Z,21.25
2022-08-20T11:02:16.743Z,21.25
2022-08-20T11:04:45.843Z,21.22
2022-08-20T11:07:17.007Z,21.15
2022-08-20T11:09:46.113Z,21.13
2022-08-20T11:12:14.775Z,21.07
2022-08-20T11:14:42.953Z,20.94
2022-08-20T11:17:11.746Z,20.93
2022-08-20T11:19:42.520Z,20.96
2022-08-20T11:22:12.090Z,20.95
2022-08-20T11:24:40.319Z,21.05
2022-08-20T11:27:09.514Z,21.00
2022-08-20T11:29:39.151Z,20.94
2022-08-20T11:32:08.710Z,20.95
2022-08-20T11:34:36.915Z,20.90
2022-08-20T11:37:06.450Z,20.87
2022-08-20T11:39:37.519Z,20.95
2022-08-20T11:42:09.606Z,20.88
2022-08-20T11:44:38.159Z,20.97
2022-08-20T11:47:08.718Z,20.91
2022-08-20T11:49:38.576Z,20.92
2022-08-20T11:52:08.297Z,20.88
2022-08-20T11:54:40.412Z,21.04
2022-08-20T11:57:08.990Z,20.99
2022-08-20T11:59:37.153Z,20.95
2022-08-20T12:02:12.143Z,20.90
2022-08-20T12:04:40.741Z,21.09
2022-08-20T12:07:11.523Z,21.10
2022-08-20T12:09:50.649Z,21.25
2022-08-20T12:12:20.543Z,21.18
2022-08-20T12:14:48.869Z,21.32
2022-08-20T12:17:21.350Z,21.33
2022-08-20T12:19:49.520Z,21.50
2022-08-20T12:22:25.157Z,21.41
2022-08-20T12:24:54.561Z,21.55
2022-08-20T12:27:24.889Z,21.52
2022-08-20T12:29:54.821Z,21.42
2022-08-20T12:32:23.665Z,21.47
2022-08-20T12:34:52.073Z,21.43
2022-08-20T12:37:25.225Z,21.45
2022-08-20T12:39:55.804Z,21.49
2022-08-20T12:42:25.093Z,21.51
2022-08-20T12:44:53.621Z,21.57
2022-08-20T12:47:23.824Z,21.69
2022-08-20T12:49:54.101Z,21.73
2022-08-20T12:52:25.931Z,21.67
2022-08-20T12:54:54.883Z,21.61
2022-08-20T12:57:25.538Z,21.73
2022-08-20T12:59:53.646Z,21.66
2022-08-20T13:02:22.081Z,21.72
2022-08-20T13:04:50.303Z,21.77
2022-08-20T13:07:18.545Z,21.88
2022-08-20T13:09:49.160Z,21.86
2022-08-20T13:12:17.566Z,22.00
2022-08-20T13:14:45.724Z,21.91
2022-08-20T13:17:13.979Z,22.04
2022-08-20T13:19:45.056Z,21.82
2022-08-20T13:22:14.139Z,21.80
2022-08-20T13:24:43.074Z,21.54
2022-08-20T13:27:14.543Z,21.74
2022-08-20T13:29:47.548Z,21.75
2022-08-20T13:32:16.051Z,21.78
2022-08-20T13:34:45.263Z,21.73
2022-08-20T13:37:14.643Z,21.43
2022-08-20T13:39:43.654Z,21.44
2022-08-20T13:42:14.412Z,21.42
2022-08-20T13:44:43.415Z,21.47
2022-08-20T13:47:19.684Z,21.67
2022-08-20T13:49:49.495Z,21.53
2022-08-20T13:52:17.628Z,21.48
2022-08-20T13:54:45.868Z,21.39
2022-08-20T13:57:17.778Z,21.32
2022-08-20T13:59:48.128Z,21.20
2022-08-20T14:02:19.091Z,21.06
2022-08-20T14:04:48.635Z,21.25
2022-08-20T14:07:19.685Z,21.25
2022-08-20T14:09:50.356Z,21.27
2022-08-20T14:12:20.571Z,21.13
2022-08-20T14:14:49.022Z,21.29
2022-08-20T14:17:19.168Z,21.28
2022-08-20T14:19:49.107Z,21.29
2022-08-20T14:22:18.593Z,21.29
2022-08-20T14:24:50.338Z,21.33
2022-08-20T14:27:21.816Z,21.24
2022-08-20T14:29:51.384Z,21.47
2022-08-20T14:32:19.803Z,21.38
2022-08-20T14:34:48.050Z,21.39
2022-08-20T14:39:47.519Z,21.41
2022-08-20T14:42:15.968Z,21.23
2022-08-20T14:44:45.782Z,21.37
2022-08-20T14:47:16.461Z,21.35
2022-08-20T14:49:46.020Z,21.29
2022-08-20T14:52:16.453Z,21.26
2022-08-20T14:54:45.737Z,21.27
2022-08-20T14:57:16.305Z,21.21
2022-08-20T14:59:46.733Z,21.27
2022-08-20T15:02:17.753Z,21.12
2022-08-20T15:04:52.243Z,21.18
2022-08-20T15:07:25.617Z,21.14
2022-08-20T15:09:54.774Z,21.00
2022-08-20T15:12:23.454Z,20.90
2022-08-20T15:14:53.001Z,20.94
2022-08-20T15:17:22.936Z,20.75
2022-08-20T15:19:51.398Z,20.68
2022-08-20T15:22:20.021Z,20.65
2022-08-20T15:24:48.875Z,20.74
2022-08-20T15:27:22.665Z,20.48
2022-08-20T15:29:53.787Z,20.85
2022-08-20T15:32:22.847Z,20.80
2022-08-20T15:34:51.087Z,20.67
2022-08-20T15:37:21.676Z,20.53
2022-08-20T15:39:51.958Z,20.49
2022-08-20T15:42:22.246Z,20.50
2022-08-20T15:44:50.910Z,20.49
2022-08-20T15:47:27.280Z,20.59
2022-08-20T15:50:03.634Z,20.76
2022-08-20T15:52:41.832Z,20.54
2022-08-20T15:55:12.818Z,20.61
2022-08-20T15:57:50.830Z,20.46
2022-08-20T16:00:21.688Z,20.51
2022-08-20T16:03:19.147Z,20.52
2022-08-20T16:05:55.333Z,20.51
2022-08-20T16:08:44.198Z,20.48
2022-08-20T16:11:21.077Z,20.31
2022-08-20T16:13:52.095Z,20.33
2022-08-20T16:16:26.562Z,20.38
2022-08-20T16:18:56.316Z,20.25
2022-08-20T16:21:30.443Z,20.24
2022-08-20T16:23:58.817Z,20.34
2022-08-20T16:26:47.598Z,20.35
2022-08-20T16:29:20.575Z,20.37
2022-08-20T16:31:54.467Z,20.34
2022-08-20T16:34:33.637Z,20.32
2022-08-20T16:37:12.912Z,20.29
2022-08-20T16:39:48.442Z,20.28
2022-08-20T16:42:24.219Z,20.25
2022-08-20T16:44:56.136Z,20.23
2022-08-20T16:47:29.300Z,20.30
2022-08-20T16:50:04.596Z,20.15
2022-08-20T16:52:32.973Z,20.16
2022-08-20T16:55:01.187Z,20.19
2022-08-20T16:57:30.355Z,20.21
2022-08-20T17:00:08.895Z,20.16
2022-08-20T17:02:37.115Z,20.26
2022-08-20T17:05:07.377Z,20.12
2022-08-20T17:07:46.160Z,20.14
2022-08-20T17:10:20.856Z,20.07
2022-08-20T17:12:54.391Z,19.98
2022-08-20T17:15:26.630Z,20.14
2022-08-20T17:17:55.915Z,20.15
2022-08-20T17:20:28.033Z,20.12
2022-08-20T17:23:10.649Z,20.14
2022-08-20T17:25:39.343Z,20.06
2022-08-20T17:28:15.721Z,20.01
2022-08-20T17:30:45.680Z,19.99
2022-08-20T17:33:25.228Z,19.93
2022-08-20T17:35:56.778Z,19.93
2022-08-20T17:38:33.047Z,20.00
2022-08-20T17:41:03.800Z,20.08
2022-08-20T17:43:34.383Z,20.00
2022-08-20T17:46:07.619Z,19.99
2022-08-20T17:48:44.824Z,19.82
2022-08-20T17:51:20.153Z,19.82
2022-08-20T17:53:52.655Z,19.89
2022-08-20T17:56:24.932Z,19.82
2022-08-20T17:58:58.166Z,19.69
2022-08-20T18:01:32.130Z,19.69
2022-08-20T18:04:00.405Z,19.72
2022-08-20T18:06:35.950Z,19.71
2022-08-20T18:09:11.138Z,19.70
2022-08-20T18:11:45.190Z,19.57
2022-08-20T18:14:26.903Z,19.62
2022-08-20T18:17:11.735Z,19.51
2022-08-20T18:20:12.392Z,19.45
2022-08-20T18:22:51.065Z,19.53
2022-08-20T18:25:29.157Z,19.49
2022-08-20T18:28:03.363Z,19.61
2022-08-20T18:30:33.356Z,19.52
2022-08-20T18:33:05.519Z,19.53
2022-08-20T18:35:37.502Z,19.52
2022-08-20T18:38:26.973Z,19.35
2022-08-20T18:41:06.609Z,19.39
2022-08-20T18:43:35.680Z,19.46
2022-08-20T18:46:12.782Z,19.50
2022-08-20T18:48:52.068Z,19.39
2022-08-20T18:51:25.096Z,19.50
2022-08-20T18:53:54.822Z,19.45
2022-08-20T18:56:33.196Z,19.56
2022-08-20T18:59:06.269Z,19.74
2022-08-20T19:01:37.457Z,19.64
2022-08-20T19:04:23.035Z,19.46
2022-08-20T19:06:57.486Z,19.56
2022-08-20T19:09:43.937Z,19.46
2022-08-20T19:12:27.382Z,19.51
2022-08-20T19:15:00.874Z,19.54
2022-08-20T19:17:45.750Z,19.52
2022-08-20T19:20:19.121Z,19.50
2022-08-20T19:22:49.909Z,19.31
2022-08-20T19:25:30.725Z,19.55
2022-08-20T19:28:01.577Z,19.45
2022-08-20T19:30:33.266Z,19.46
2022-08-20T19:33:02.451Z,19.37
2022-08-20T19:35:30.742Z,19.43
2022-08-20T19:37:59.479Z,19.32
2022-08-20T19:40:32.077Z,19.43
2022-08-20T19:43:03.282Z,19.47
2022-08-20T19:45:42.634Z,19.51
2022-08-20T19:48:27.108Z,19.44
2022-08-20T19:51:06.367Z,19.35
2022-08-20T19:53:36.914Z,19.38
2022-08-20T19:56:11.479Z,19.33
2022-08-20T19:58:40.249Z,19.34
2022-08-20T20:01:11.982Z,19.39
2022-08-20T20:03:40.292Z,19.22
2022-08-20T20:06:16.565Z,19.25
2022-08-20T20:08:52.781Z,19.24
2022-08-20T20:11:27.928Z,19.10
2022-08-20T20:14:03.028Z,19.18
2022-08-20T20:16:32.649Z,19.17
2022-08-20T20:19:24.894Z,19.16
2022-08-20T20:21:51.769Z,19.26
2022-08-20T20:24:25.657Z,19.26
2022-08-20T20:26:55.759Z,19.33
2022-08-20T20:29:26.872Z,19.14
2022-08-20T20:31:58.073Z,19.29
2022-08-20T20:34:28.594Z,19.19
2022-08-20T20:37:07.355Z,19.12
2022-08-20T20:39:38.317Z,19.24
2022-08-20T20:42:11.272Z,19.13
2022-08-20T20:44:41.745Z,19.16
2022-08-20T20:47:20.205Z,19.14
2022-08-20T20:49:52.258Z,19.22
2022-08-20T20:52:23.523Z,19.06
2022-08-20T20:54:52.962Z,19.05
2022-08-20T20:57:38.007Z,19.07
2022-08-20T21:00:11.291Z,19.01
2022-08-20T21:02:39.629Z,19.18
2022-08-20T21:05:08.514Z,19.10
2022-08-20T21:07:45.990Z,19.09
2022-08-20T21:10:21.293Z,18.89
2022-08-20T21:12:53.123Z,18.81
2022-08-20T21:15:23.786Z,18.99
2022-08-20T21:17:52.663Z,19.11
2022-08-20T21:20:22.386Z,19.09
2022-08-20T21:22:50.609Z,19.15
2022-08-20T21:25:20.396Z,19.06
2022-08-20T21:27:52.169Z,19.11
2022-08-20T21:30:22.453Z,19.06
2022-08-20T21:32:51.132Z,19.07
2022-08-20T21:35:19.603Z,18.97
2022-08-20T21:37:47.842Z,18.93
2022-08-20T21:40:18.122Z,19.04
2022-08-20T21:42:51.493Z,18.85
2022-08-20T21:45:20.095Z,18.84
2022-08-20T21:47:49.293Z,18.79
2022-08-20T21:50:19.811Z,18.90
2022-08-20T21:52:59.387Z,18.98
2022-08-20T21:55:30.470Z,18.88
2022-08-20T21:58:00.084Z,18.92
2022-08-20T22:00:54.344Z,18.88
2022-08-20T22:03:24.727Z,18.94
2022-08-20T22:05:54.087Z,18.87
2022-08-20T22:08:24.174Z,18.85
2022-08-20T22:10:57.734Z,18.81
2022-08-20T22:13:31.430Z,18.86
2022-08-20T22:16:00.381Z,18.86
2022-08-20T22:18:28.814Z,18.83
2022-08-20T22:20:57.316Z,18.82
2022-08-20T22:23:25.898Z,18.89
2022-08-20T22:25:54.095Z,18.93
2022-08-20T22:28:23.183Z,18.88
2022-08-20T22:30:52.698Z,18.93
2022-08-20T22:33:23.287Z,18.92
2022-08-20T22:35:54.368Z,18.88
2022-08-20T22:38:23.157Z,18.86
2022-08-20T22:40:51.482Z,18.83
2022-08-20T22:43:19.848Z,18.89
2022-08-20T22:45:51.538Z,18.84
2022-08-20T22:48:21.814Z,18.92
2022-08-20T22:50:51.242Z,18.90
2022-08-20T22:53:21.727Z,18.89
2022-08-20T22:55:50.309Z,18.83
2022-08-20T22:58:19.813Z,18.84
2022-08-20T23:00:59.637Z,18.93
2022-08-20T23:03:39.145Z,18.91
2022-08-20T23:06:10.347Z,18.88
2022-08-20T23:08:38.950Z,18.87
2022-08-20T23:11:07.396Z,18.89
2022-08-20T23:13:35.629Z,18.87
2022-08-20T23:16:05.036Z,18.87
2022-08-20T23:18:34.834Z,18.81
2022-08-20T23:21:03.765Z,18.92
2022-08-20T23:23:32.292Z,18.90
2022-08-20T23:26:01.591Z,18.95
2022-08-20T23:28:29.759Z,18.98
2022-08-20T23:30:57.979Z,18.86
2022-08-20T23:33:26.372Z,18.98
2022-08-20T23:36:04.527Z,18.83
2022-08-20T23:38:32.713Z,18.96
2022-08-20T23:41:00.955Z,18.89
2022-08-20T23:43:29.171Z,18.89
2022-08-20T23:46:00.134Z,18.90
2022-08-20T23:48:28.303Z,18.94
2022-08-20T23:50:57.902Z,18.72
2022-08-20T23:53:26.190Z,18.62
2022-08-20T23:55:54.402Z,18.74
2022-08-20T23:58:22.625Z,18.73
